createdAt,value
2018-06-23T00:01:13.091Z,99234.17
2018-06-23T00:03:41.461Z,99231.91
2018-06-23T00:06:09.809Z,99230.88
2018-06-23T00:08:38.203Z,99226.48
2018-06-23T00:11:06.605Z,99239.73
2018-06-23T00:13:35.166Z,99238.77
2018-06-23T00:16:03.669Z,99232.71
2018-06-23T00:18:32.048Z,99238.25
2018-06-23T00:21:00.436Z,99229.39
2018-06-23T00:23:28.887Z,99236.63
2018-06-23T00:26:02.519Z,99231.91
2018-06-23T00:28:30.935Z,99239.97
2018-06-23T00:30:59.257Z,99239.73
2018-06-23T00:33:27.566Z,99236.75
2018-06-23T00:35:55.901Z,99239.44
2018-06-23T00:38:24.223Z,99234.69
2018-06-23T00:40:52.560Z,99239.53
2018-06-23T00:43:20.942Z,99241.26
2018-06-23T00:45:49.310Z,99233.59
2018-06-23T00:48:17.646Z,99235.17
2018-06-23T00:50:46.013Z,99234.34
2018-06-23T00:53:14.349Z,99235.33
2018-06-23T00:55:42.672Z,99234.34
2018-06-23T00:58:11.210Z,99237.52
2018-06-23T01:00:39.489Z,99235.08
2018-06-23T01:03:07.821Z,99234.72
2018-06-23T01:05:36.165Z,99235.11
2018-06-23T01:08:04.709Z,99228.57
2018-06-23T01:10:33.186Z,99226.97
2018-06-23T01:13:01.526Z,99226.00
2018-06-23T01:15:30.006Z,99228.83
2018-06-23T01:17:58.333Z,99222.06
2018-06-23T01:20:26.626Z,99226.71
2018-06-23T01:22:55.042Z,99222.99
2018-06-23T01:25:23.492Z,99222.75
2018-06-23T01:27:51.814Z,99218.03
2018-06-23T01:30:20.329Z,99213.22
2018-06-23T01:32:48.732Z,99219.12
2018-06-23T01:35:17.030Z,99223.14
2018-06-23T01:37:45.442Z,99217.67
2018-06-23T01:40:13.770Z,99211.71
2018-06-23T01:42:42.195Z,99215.65
2018-06-23T01:45:10.583Z,99211.17
2018-06-23T01:47:38.946Z,99210.30
2018-06-23T01:50:07.338Z,99211.48
2018-06-23T01:52:35.843Z,99211.68
2018-06-23T01:55:04.213Z,99211.18
2018-06-23T01:57:32.799Z,99212.22
2018-06-23T02:00:01.181Z,99210.50
2018-06-23T02:02:29.594Z,99203.72
2018-06-23T02:04:58.024Z,99208.64
2018-06-23T02:07:26.366Z,99201.36
2018-06-23T02:09:54.742Z,99195.42
2018-06-23T02:12:23.125Z,99198.88
2018-06-23T02:14:57.383Z,99203.63
2018-06-23T02:17:30.890Z,99204.34
2018-06-23T02:22:08.587Z,99201.00
2018-06-23T02:24:42.103Z,99203.87
2018-06-23T02:27:15.783Z,99207.03
2018-06-23T02:29:49.501Z,99211.03
2018-06-23T02:32:23.115Z,99211.59
2018-06-23T02:34:56.742Z,99214.14
2018-06-23T02:37:25.282Z,99207.63
2018-06-23T02:39:53.732Z,99203.42
2018-06-23T02:42:22.229Z,99207.00
2018-06-23T02:44:50.642Z,99214.94
2018-06-23T02:47:19.043Z,99213.34
2018-06-23T02:49:47.327Z,99217.70
2018-06-23T02:52:15.748Z,99222.47
2018-06-23T02:54:44.122Z,99221.02
2018-06-23T02:57:12.525Z,99226.05
2018-06-23T02:59:40.969Z,99220.91
2018-06-23T03:02:09.396Z,99226.10
2018-06-23T03:04:37.825Z,99222.38
2018-06-23T03:07:06.391Z,99219.15
2018-06-23T03:09:34.872Z,99234.20
2018-06-23T03:12:03.244Z,99234.71
2018-06-23T03:14:31.628Z,99238.14
2018-06-23T03:17:00.073Z,99241.80
2018-06-23T03:19:28.441Z,99243.73
2018-06-23T03:21:56.807Z,99248.20
2018-06-23T03:24:25.278Z,99246.67
2018-06-23T03:26:53.665Z,99253.87
2018-06-23T03:29:22.097Z,99253.15
2018-06-23T03:31:50.483Z,99254.02
2018-06-23T03:34:18.886Z,99250.89
2018-06-23T03:36:47.208Z,99249.02
2018-06-23T03:39:15.581Z,99247.19
2018-06-23T03:41:43.956Z,99244.15
2018-06-23T03:44:12.325Z,99246.33
2018-06-23T03:46:40.660Z,99253.06
2018-06-23T03:49:09.037Z,99242.70
2018-06-23T03:51:37.535Z,99249.43
2018-06-23T03:54:06.014Z,99249.23
2018-06-23T03:56:34.376Z,99245.13
2018-06-23T03:59:02.773Z,99239.03
2018-06-23T04:01:31.164Z,99242.58
2018-06-23T04:03:59.643Z,99245.75
2018-06-23T04:06:27.973Z,99244.22
2018-06-23T04:08:56.390Z,99233.77
2018-06-23T04:11:24.993Z,99228.60
2018-06-23T04:13:53.370Z,99235.33
2018-06-23T04:16:21.827Z,99242.67
2018-06-23T04:18:58.109Z,99244.54
2018-06-23T04:21:27.758Z,99245.13
2018-06-23T04:23:56.223Z,99243.81
2018-06-23T04:26:24.807Z,99245.59
2018-06-23T04:28:53.210Z,99251.81
2018-06-23T04:31:21.558Z,99258.16
2018-06-23T04:33:50.038Z,99259.56
2018-06-23T04:36:18.417Z,99256.30
2018-06-23T04:38:47.181Z,99256.88
2018-06-23T04:41:15.588Z,99254.92
2018-06-23T04:43:44.026Z,99260.44
2018-06-23T04:46:12.394Z,99262.30
2018-06-23T04:48:40.775Z,99264.41
2018-06-23T04:51:09.178Z,99271.42
2018-06-23T04:53:45.584Z,99264.47
2018-06-23T04:56:14.115Z,99268.36
2018-06-23T04:58:42.446Z,99264.19
2018-06-23T05:01:11.125Z,99264.46
2018-06-23T05:03:39.557Z,99266.44
2018-06-23T05:06:08.188Z,99275.19
2018-06-23T05:08:47.592Z,99273.33
2018-06-23T05:11:17.784Z,99283.14
2018-06-23T05:13:46.245Z,99281.48
2018-06-23T05:16:14.768Z,99278.58
2018-06-23T05:18:43.090Z,99279.92
2018-06-23T05:21:11.529Z,99280.48
2018-06-23T05:23:40.091Z,99281.56
2018-06-23T05:26:08.443Z,99279.29
2018-06-23T05:28:36.813Z,99275.03
2018-06-23T05:31:05.108Z,99277.23
2018-06-23T05:33:33.686Z,99280.50
2018-06-23T05:36:02.014Z,99285.80
2018-06-23T05:38:30.335Z,99279.03
2018-06-23T05:40:58.678Z,99283.87
2018-06-23T05:43:27.089Z,99283.28
2018-06-23T05:45:55.619Z,99286.52
2018-06-23T05:48:23.982Z,99285.48
2018-06-23T05:50:52.324Z,99280.73
2018-06-23T05:53:20.876Z,99274.64
2018-06-23T05:55:49.285Z,99277.72
2018-06-23T05:58:17.684Z,99277.23
2018-06-23T06:00:46.086Z,99280.28
2018-06-23T06:03:14.599Z,99278.78
2018-06-23T06:05:43.125Z,99282.80
2018-06-23T06:08:11.462Z,99278.58
2018-06-23T06:10:39.868Z,99277.59
2018-06-23T06:13:08.301Z,99283.41
2018-06-23T06:15:36.664Z,99287.09
2018-06-23T06:18:05.048Z,99284.05
2018-06-23T06:20:33.502Z,99283.55
2018-06-23T06:23:01.919Z,99275.84
2018-06-23T06:25:30.241Z,99277.61
2018-06-23T06:27:58.565Z,99274.31
2018-06-23T06:30:26.985Z,99271.80
2018-06-23T06:32:55.365Z,99268.52
2018-06-23T06:35:23.845Z,99276.14
2018-06-23T06:37:52.251Z,99271.86
2018-06-23T06:40:20.649Z,99275.06
2018-06-23T06:42:49.108Z,99277.05
2018-06-23T06:45:17.586Z,99273.11
2018-06-23T06:47:45.952Z,99273.85
2018-06-23T06:50:14.350Z,99277.42
2018-06-23T06:52:42.719Z,99274.08
2018-06-23T06:55:11.041Z,99273.83
2018-06-23T06:57:39.455Z,99265.12
2018-06-23T07:00:08.026Z,99270.94
2018-06-23T07:02:36.425Z,99268.66
2018-06-23T07:05:04.885Z,99262.95
2018-06-23T07:07:33.270Z,99260.21
2018-06-23T07:10:01.645Z,99258.45
2018-06-23T07:12:30.035Z,99259.25
2018-06-23T07:14:58.378Z,99258.90
2018-06-23T07:17:26.742Z,99261.72
2018-06-23T07:19:55.137Z,99264.70
2018-06-23T07:22:23.680Z,99255.45
2018-06-23T07:24:52.202Z,99260.24
2018-06-23T07:27:20.752Z,99262.69
2018-06-23T07:29:49.174Z,99260.20
2018-06-23T07:32:17.689Z,99262.75
2018-06-23T07:34:46.338Z,99254.02
2018-06-23T07:37:14.762Z,99254.56
2018-06-23T07:39:43.392Z,99253.94
2018-06-23T07:42:11.886Z,99257.33
2018-06-23T07:44:41.650Z,99257.54
2018-06-23T07:47:10.099Z,99262.44
2018-06-23T07:49:38.495Z,99259.16
2018-06-23T07:52:07.043Z,99258.81
2018-06-23T07:54:35.868Z,99255.20
2018-06-23T07:57:04.756Z,99244.33
2018-06-23T07:59:33.345Z,99241.62
2018-06-23T08:02:01.887Z,99237.92
2018-06-23T08:04:30.193Z,99241.05
2018-06-23T08:06:58.617Z,99231.94
2018-06-23T08:09:27.110Z,99234.39
2018-06-23T08:11:55.480Z,99226.88
2018-06-23T08:14:31.680Z,99232.11
2018-06-23T08:17:00.152Z,99236.37
2018-06-23T08:19:28.506Z,99222.91
2018-06-23T08:21:57.049Z,99221.97
2018-06-23T08:24:25.883Z,99220.16
2018-06-23T08:26:54.435Z,99223.23
2018-06-23T08:29:23.346Z,99222.95
2018-06-23T08:31:51.808Z,99228.58
2018-06-23T08:34:20.149Z,99233.98
2018-06-23T08:36:48.586Z,99218.84
2018-06-23T08:39:17.009Z,99221.38
2018-06-23T08:41:45.541Z,99218.61
2018-06-23T08:44:13.956Z,99224.08
2018-06-23T08:46:42.413Z,99221.83
2018-06-23T08:49:10.934Z,99226.34
2018-06-23T08:51:39.341Z,99223.23
2018-06-23T08:54:08.652Z,99230.00
2018-06-23T08:56:38.059Z,99210.17
2018-06-23T08:59:06.508Z,99210.97
2018-06-23T09:01:35.882Z,99213.19
2018-06-23T09:04:05.765Z,99213.20
2018-06-23T09:06:35.520Z,99208.05
2018-06-23T09:09:04.352Z,99214.45
2018-06-23T09:11:32.822Z,99211.75
2018-06-23T09:14:01.244Z,99219.60
2018-06-23T09:16:29.754Z,99210.83
2018-06-23T09:18:58.285Z,99218.22
2018-06-23T09:21:26.686Z,99214.07
2018-06-23T09:23:55.108Z,99221.54
2018-06-23T09:26:23.587Z,99214.92
2018-06-23T09:28:51.930Z,99212.55
2018-06-23T09:31:20.448Z,99204.24
2018-06-23T09:33:48.928Z,99200.92
2018-06-23T09:36:17.448Z,99215.13
2018-06-23T09:38:45.826Z,99204.71
2018-06-23T09:41:14.350Z,99212.11
2018-06-23T09:43:42.736Z,99218.61
2018-06-23T09:46:11.123Z,99213.38
2018-06-23T09:48:39.487Z,99218.53
2018-06-23T09:51:08.068Z,99217.16
2018-06-23T09:53:36.480Z,99220.02
2018-06-23T09:56:05.130Z,99217.41
2018-06-23T09:58:33.517Z,99221.56
2018-06-23T10:01:01.973Z,99223.23
2018-06-23T10:03:30.464Z,99225.89
2018-06-23T10:05:58.751Z,99219.06
2018-06-23T10:08:27.186Z,99212.36
2018-06-23T10:13:25.136Z,99213.02
2018-06-23T10:15:54.453Z,99222.39
2018-06-23T10:18:22.974Z,99219.17
2018-06-23T10:20:51.381Z,99229.58
2018-06-23T10:23:20.406Z,99227.70
2018-06-23T10:25:48.761Z,99218.22
2018-06-23T10:28:17.455Z,99217.83
2018-06-23T10:30:45.742Z,99232.44
2018-06-23T10:33:14.134Z,99219.70
2018-06-23T10:35:42.542Z,99217.05
2018-06-23T10:38:11.445Z,99218.56
2018-06-23T10:40:40.155Z,99214.31
2018-06-23T10:43:08.575Z,99217.11
2018-06-23T10:45:37.091Z,99204.76
2018-06-23T10:48:05.512Z,99209.32
2018-06-23T10:50:33.850Z,99208.65
2018-06-23T10:53:02.352Z,99215.43
2018-06-23T10:55:30.740Z,99205.30
2018-06-23T10:57:59.114Z,99212.70
2018-06-23T11:00:27.512Z,99216.77
2018-06-23T11:02:55.880Z,99217.22
2018-06-23T11:05:24.228Z,99221.81
2018-06-23T11:07:52.571Z,99213.50
2018-06-23T11:10:21.661Z,99212.14
2018-06-23T11:12:50.041Z,99209.05
2018-06-23T11:15:18.390Z,99203.34
2018-06-23T11:17:46.720Z,99207.41
2018-06-23T11:20:15.179Z,99204.03
2018-06-23T11:22:43.544Z,99196.55
2018-06-23T11:25:11.956Z,99185.98
2018-06-23T11:27:40.391Z,99175.30
2018-06-23T11:30:08.765Z,99172.00
2018-06-23T11:32:37.272Z,99168.17
2018-06-23T11:35:05.579Z,99166.24
2018-06-23T11:37:33.980Z,99166.84
2018-06-23T11:40:02.309Z,99151.19
2018-06-23T11:42:30.666Z,99162.81
2018-06-23T11:44:58.995Z,99160.19
2018-06-23T11:47:27.313Z,99167.36
2018-06-23T11:49:55.621Z,99162.01
2018-06-23T11:52:24.296Z,99168.63
2018-06-23T11:54:52.614Z,99165.10
2018-06-23T11:57:22.027Z,99163.11
2018-06-23T11:59:50.879Z,99157.23
2018-06-23T12:02:19.221Z,99149.50
2018-06-23T12:04:47.675Z,99137.29
2018-06-23T12:07:19.649Z,99141.98
2018-06-23T12:09:56.748Z,99135.62
2018-06-23T12:12:25.196Z,99125.64
2018-06-23T12:14:53.779Z,99127.29
2018-06-23T12:17:22.188Z,99121.50
2018-06-23T12:19:50.586Z,99119.40
2018-06-23T12:22:19.093Z,99121.16
2018-06-23T12:24:47.414Z,99130.53
2018-06-23T12:27:15.850Z,99117.23
2018-06-23T12:29:44.305Z,99117.97
2018-06-23T12:32:12.736Z,99115.97
2018-06-23T12:34:41.053Z,99109.61
2018-06-23T12:37:09.450Z,99113.00
2018-06-23T12:39:37.820Z,99114.03
2018-06-23T12:42:06.114Z,99101.75
2018-06-23T12:44:34.446Z,99102.12
2018-06-23T12:47:02.968Z,99097.69
2018-06-23T12:49:31.221Z,99091.63
2018-06-23T12:51:59.569Z,99090.59
2018-06-23T12:54:28.223Z,99090.29
2018-06-23T12:56:56.537Z,99085.59
2018-06-23T12:59:24.958Z,99085.52
2018-06-23T13:01:53.313Z,99082.88
2018-06-23T13:04:21.873Z,99086.05
2018-06-23T13:06:50.349Z,99084.96
2018-06-23T13:09:18.646Z,99075.59
2018-06-23T13:11:47.106Z,99076.24
2018-06-23T13:14:15.456Z,99065.89
2018-06-23T13:16:43.859Z,99067.18
2018-06-23T13:19:12.245Z,99063.88
2018-06-23T13:21:40.763Z,99061.64
2018-06-23T13:24:09.049Z,99058.00
2018-06-23T13:26:37.360Z,99051.64
2018-06-23T13:29:05.696Z,99045.97
2018-06-23T13:31:33.996Z,99041.69
2018-06-23T13:34:02.441Z,99041.18
2018-06-23T13:36:31.003Z,99049.42
2018-06-23T13:38:59.354Z,99050.98
2018-06-23T13:41:27.722Z,99041.23
2018-06-23T13:43:56.069Z,99039.72
2018-06-23T13:46:24.377Z,99038.19
2018-06-23T13:48:52.685Z,99031.27
2018-06-23T13:51:20.984Z,99028.03
2018-06-23T13:53:49.357Z,99026.35
2018-06-23T13:56:17.724Z,99020.14
2018-06-23T13:58:46.002Z,99033.66
2018-06-23T14:01:14.314Z,99030.92
2018-06-23T14:03:42.612Z,99036.88
2018-06-23T14:06:11.071Z,99046.03
2018-06-23T14:08:39.536Z,99042.78
2018-06-23T14:11:07.858Z,99022.58
2018-06-23T14:13:36.292Z,99030.28
2018-06-23T14:16:04.658Z,99024.86
2018-06-23T14:18:32.919Z,99020.66
2018-06-23T14:21:07.412Z,99029.22
2018-06-23T14:23:35.893Z,99029.50
2018-06-23T14:26:04.496Z,99025.41
2018-06-23T14:28:32.941Z,99029.80
2018-06-23T14:31:01.274Z,99026.70
2018-06-23T14:33:29.697Z,99024.38
2018-06-23T14:35:58.006Z,99017.56
2018-06-23T14:38:26.482Z,99022.28
2018-06-23T14:40:54.796Z,99021.26
2018-06-23T14:43:23.068Z,99021.82
2018-06-23T14:45:51.587Z,99017.55
2018-06-23T14:48:19.896Z,99014.65
2018-06-23T14:50:48.295Z,99012.45
2018-06-23T14:53:16.648Z,99010.04
2018-06-23T14:55:45.105Z,99021.06
2018-06-23T14:58:13.494Z,99012.52
2018-06-23T15:00:41.904Z,99008.28
2018-06-23T15:03:10.217Z,99006.75
2018-06-23T15:05:38.493Z,99016.49
2018-06-23T15:08:17.938Z,99010.69
2018-06-23T15:10:57.440Z,99005.02
2018-06-23T15:13:25.947Z,99001.83
2018-06-23T15:15:54.247Z,98997.89
2018-06-23T15:18:22.569Z,98996.96
2018-06-23T15:20:51.040Z,98999.83
2018-06-23T15:23:19.375Z,98995.83
2018-06-23T15:25:47.719Z,98998.44
2018-06-23T15:28:15.984Z,98997.94
2018-06-23T15:30:44.341Z,98998.94
2018-06-23T15:33:12.598Z,98992.59
2018-06-23T15:35:40.933Z,98993.98
2018-06-23T15:38:09.449Z,98995.14
2018-06-23T15:40:37.718Z,98989.66
2018-06-23T15:43:06.077Z,98975.50
2018-06-23T15:45:34.443Z,98985.17
2018-06-23T15:48:02.744Z,98979.75
2018-06-23T15:50:31.546Z,98977.31
2018-06-23T15:52:59.887Z,98985.67
2018-06-23T15:55:28.227Z,98981.09
2018-06-23T15:57:56.611Z,98966.15
2018-06-23T16:00:24.913Z,98972.48
2018-06-23T16:02:53.210Z,98970.27
2018-06-23T16:05:21.600Z,98968.48
2018-06-23T16:07:49.973Z,98969.02
2018-06-23T16:10:24.919Z,98966.59
2018-06-23T16:12:54.218Z,98972.58
2018-06-23T16:15:22.739Z,98960.38
2018-06-23T16:17:51.273Z,98957.55
2018-06-23T16:20:19.562Z,98961.38
2018-06-23T16:22:48.277Z,98958.55
2018-06-23T16:25:17.003Z,98957.45
2018-06-23T16:27:45.339Z,98960.88
2018-06-23T16:30:13.789Z,98966.02
2018-06-23T16:32:42.268Z,98961.90
2018-06-23T16:35:10.832Z,98958.41
2018-06-23T16:37:39.096Z,98953.28
2018-06-23T16:40:07.467Z,98954.59
2018-06-23T16:42:35.738Z,98956.23
2018-06-23T16:45:04.166Z,98953.17
2018-06-23T16:47:32.713Z,98954.92
2018-06-23T16:50:01.202Z,98959.31
2018-06-23T16:52:29.714Z,98960.16
2018-06-23T16:54:58.182Z,98950.44
2018-06-23T16:57:26.500Z,98949.63
2018-06-23T16:59:54.811Z,98949.92
2018-06-23T17:02:23.235Z,98950.41
2018-06-23T17:04:51.727Z,98954.39
2018-06-23T17:07:20.111Z,98950.45
2018-06-23T17:09:48.505Z,98945.80
2018-06-23T17:12:16.886Z,98948.30
2018-06-23T17:14:45.299Z,98948.87
2018-06-23T17:17:13.663Z,98957.97
2018-06-23T17:19:42.016Z,98953.17
2018-06-23T17:22:10.366Z,98947.26
2018-06-23T17:24:38.832Z,98946.82
2018-06-23T17:27:07.134Z,98954.80
2018-06-23T17:29:35.568Z,98957.88
2018-06-23T17:32:04.154Z,98951.75
2018-06-23T17:34:32.768Z,98955.36
2018-06-23T17:37:01.163Z,98958.75
2018-06-23T17:39:29.630Z,98950.92
2018-06-23T17:41:58.173Z,98952.50
2018-06-23T17:44:26.542Z,98956.36
2018-06-23T17:46:55.171Z,98955.17
2018-06-23T17:49:23.638Z,98952.64
2018-06-23T17:51:52.076Z,98945.02
2018-06-23T17:54:20.465Z,98955.16
2018-06-23T17:56:48.765Z,98957.46
2018-06-23T17:59:17.256Z,98958.55
2018-06-23T18:01:45.701Z,98966.27
2018-06-23T18:04:14.009Z,98970.89
2018-06-23T18:06:42.356Z,98968.95
2018-06-23T18:09:11.150Z,98962.39
2018-06-23T18:11:40.453Z,98973.93
2018-06-23T18:14:10.140Z,98969.53
2018-06-23T18:16:38.596Z,98971.82
2018-06-23T18:19:07.455Z,98976.29
2018-06-23T18:21:35.801Z,98980.42
2018-06-23T18:24:04.211Z,98979.82
2018-06-23T18:26:32.611Z,98981.55
2018-06-23T18:29:00.989Z,98980.60
2018-06-23T18:31:29.335Z,98987.37
2018-06-23T18:33:57.786Z,98982.99
2018-06-23T18:36:26.182Z,98982.54
2018-06-23T18:38:54.557Z,98982.13
2018-06-23T18:41:22.869Z,98987.52
2018-06-23T18:43:51.227Z,98985.78
2018-06-23T18:46:19.645Z,98991.88
2018-06-23T18:48:48.066Z,98985.50
2018-06-23T18:51:16.608Z,98985.09
2018-06-23T18:53:44.965Z,98979.44
2018-06-23T18:56:13.344Z,98980.61
2018-06-23T18:58:41.744Z,98995.95
2018-06-23T19:01:10.282Z,98992.26
2018-06-23T19:03:38.655Z,98991.40
2018-06-23T19:06:07.033Z,98995.14
2018-06-23T19:08:38.295Z,98994.28
2018-06-23T19:11:06.753Z,98996.33
2018-06-23T19:13:35.110Z,98993.98
2018-06-23T19:16:03.338Z,98993.82
2018-06-23T19:18:31.696Z,98995.80
2018-06-23T19:21:00.084Z,99003.14
2018-06-23T19:23:29.308Z,99002.54
2018-06-23T19:25:57.647Z,99003.48
2018-06-23T19:28:26.047Z,99003.28
2018-06-23T19:30:54.337Z,99008.60
2018-06-23T19:33:22.835Z,99002.34
2018-06-23T19:35:51.269Z,99006.25
2018-06-23T19:38:19.654Z,99003.88
2018-06-23T19:40:48.060Z,99002.84
2018-06-23T19:43:16.397Z,99008.61
2018-06-23T19:45:44.869Z,99006.72
2018-06-23T19:48:13.359Z,99007.40
2018-06-23T19:50:41.801Z,99010.86
2018-06-23T19:53:10.178Z,99014.03
2018-06-23T19:55:38.626Z,99017.91
2018-06-23T19:58:07.109Z,99013.64
2018-06-23T20:00:35.528Z,99014.67
2018-06-23T20:03:15.701Z,99016.58
2018-06-23T20:05:46.568Z,99018.84
2018-06-23T20:08:15.275Z,99020.11
2018-06-23T20:14:03.396Z,99022.64
2018-06-23T20:16:32.192Z,99022.19
2018-06-23T20:19:00.737Z,99021.89
2018-06-23T20:21:29.191Z,99019.88
2018-06-23T20:23:57.640Z,99025.34
2018-06-23T20:26:25.965Z,99023.20
2018-06-23T20:28:55.014Z,99022.05
2018-06-23T20:31:23.488Z,99016.93
2018-06-23T20:33:52.007Z,99022.41
2018-06-23T20:36:20.447Z,99027.34
2018-06-23T20:38:48.814Z,99023.78
2018-06-23T20:41:17.219Z,99021.10
2018-06-23T20:43:45.706Z,99018.86
2018-06-23T20:46:14.134Z,99023.56
2018-06-23T20:48:42.526Z,99019.08
2018-06-23T20:51:11.004Z,99022.22
2018-06-23T20:53:39.350Z,99036.00
2018-06-23T20:56:07.729Z,99033.95
2018-06-23T20:58:36.068Z,99031.69
2018-06-23T21:01:04.685Z,99032.77
2018-06-23T21:03:33.223Z,99034.49
2018-06-23T21:06:01.553Z,99027.91
2018-06-23T21:08:29.896Z,99031.19
2018-06-23T21:10:58.216Z,99034.20
2018-06-23T21:13:26.524Z,99033.45
2018-06-23T21:15:55.072Z,99036.86
2018-06-23T21:18:23.488Z,99032.13
2018-06-23T21:20:51.856Z,99035.52
2018-06-23T21:23:20.288Z,99038.08
2018-06-23T21:25:48.753Z,99037.88
2018-06-23T21:28:17.066Z,99029.48
2018-06-23T21:30:45.677Z,99034.11
2018-06-23T21:33:14.169Z,99035.64
2018-06-23T21:35:42.528Z,99032.89
2018-06-23T21:38:10.911Z,99031.52
2018-06-23T21:40:39.252Z,99032.44
2018-06-23T21:43:07.638Z,99035.39
2018-06-23T21:48:38.860Z,99034.57
2018-06-23T21:51:07.470Z,99035.17
2018-06-23T21:53:35.963Z,99024.13
2018-06-23T21:56:04.526Z,99035.94
2018-06-23T21:58:32.961Z,99025.30
2018-06-23T22:01:01.361Z,99026.33
2018-06-23T22:03:29.861Z,99024.70
2018-06-23T22:05:58.458Z,99033.03
2018-06-23T22:08:26.970Z,99028.41
2018-06-23T22:10:55.377Z,99025.86
2018-06-23T22:13:23.831Z,99027.59
2018-06-23T22:15:52.256Z,99023.60
2018-06-23T22:18:20.611Z,99020.73
2018-06-23T22:20:49.299Z,99018.50
2018-06-23T22:23:17.674Z,99018.33
2018-06-23T22:25:46.218Z,99017.48
2018-06-23T22:28:14.657Z,99024.87
2018-06-23T22:30:43.082Z,99021.23
2018-06-23T22:33:11.607Z,99022.52
2018-06-23T22:35:40.120Z,99018.42
2018-06-23T22:38:08.529Z,99020.17
2018-06-23T22:40:36.844Z,99023.98
2018-06-23T22:43:05.237Z,99016.24
2018-06-23T22:45:33.660Z,99010.74
2018-06-23T22:48:02.118Z,99013.91
2018-06-23T22:50:30.777Z,99009.94
2018-06-23T22:52:59.261Z,99013.81
2018-06-23T22:55:27.545Z,99015.22
2018-06-23T22:57:55.921Z,99015.78
2018-06-23T23:00:24.445Z,99017.36
2018-06-23T23:02:52.860Z,99016.84
2018-06-23T23:05:21.251Z,99012.63
2018-06-23T23:07:49.854Z,99003.31
2018-06-23T23:10:18.129Z,99008.15
2018-06-23T23:12:46.483Z,99015.03
2018-06-23T23:15:14.787Z,99006.94
2018-06-23T23:17:43.142Z,99010.35
2018-06-23T23:20:11.430Z,99010.86
2018-06-23T23:22:39.766Z,99011.41
2018-06-23T23:25:08.280Z,99014.08
2018-06-23T23:27:36.624Z,99010.70
2018-06-23T23:30:09.305Z,99007.91
2018-06-23T23:32:42.249Z,99000.52
2018-06-23T23:35:10.792Z,99001.27
2018-06-23T23:37:39.126Z,99004.13
2018-06-23T23:40:07.470Z,98993.64
2018-06-23T23:42:35.840Z,99001.11
2018-06-23T23:45:04.310Z,99004.45
2018-06-23T23:47:32.830Z,98997.70
2018-06-23T23:50:03.073Z,98999.74
2018-06-23T23:52:33.742Z,98994.68
2018-06-23T23:55:02.090Z,98994.06
2018-06-23T23:57:30.434Z,98994.70
2018-06-23T23:59:58.756Z,98992.23
